KMAF/MAF METAR and TAF weather

Enter ICAO airport designator
Station Type Date Time Source
KMAF METAR 2020/03/29 15:53 UTC NOAA

KMAF 291553Z 10006KT 10SM CLR 15/M01 A3019 RMK AO2 SLP202 T01501006


Station Type Date Time Source
KMAF Decoded METAR 2020/03/29 15:53 UTC NOAA

MIDLAND INTERNATIONAL AIRPORT , TX, United States (KMAF) 31-56N 102-12W 872M
Mar 29, 2020 - 11:53 AM EDT / 2020.03.29 1553 UTC
Wind: from the E (100 degrees) at 7 MPH (6 KT):0
Visibility: 10 mile(s):0
Sky conditions: clear
Temperature: 59.0 F (15.0 C)
Dew Point: 30.9 F (-0.6 C)
Relative Humidity: 34%
Pressure (altimeter): 30.19 in. Hg (1022 hPa)
ob: KMAF 291553Z 10006KT 10SM CLR 15/M01 A3019 RMK AO2 SLP202 T01501006
cycle: 16

Station Type Date Time Source
KMAF TAF 2020/03/29 12:24 UTC NOAA

TAF KMAF 291121Z 2912/3012 32005KT P6SM BKN250
FM291700 14010KT P6SM SCT250
FM300000 15016KT P6SM SCT150 BKN250

Example: see airport list